createdAt,value
2023-01-15T00:01:01.474Z,99215.38
2023-01-15T00:03:29.268Z,99203.50
2023-01-15T00:05:58.389Z,99197.75
2023-01-15T00:08:26.177Z,99205.19
2023-01-15T00:10:53.790Z,99214.66
2023-01-15T00:13:22.947Z,99225.00
2023-01-15T00:15:50.984Z,99222.56
2023-01-15T00:18:18.623Z,99211.06
2023-01-15T00:20:46.537Z,99216.50
2023-01-15T00:23:34.129Z,99224.63
2023-01-15T00:26:19.354Z,99223.69
2023-01-15T00:28:50.647Z,99224.00
2023-01-15T00:31:18.288Z,99202.31
2023-01-15T00:33:45.919Z,99189.09
2023-01-15T00:36:13.972Z,99201.25
2023-01-15T00:38:41.536Z,99204.88
2023-01-15T00:41:09.515Z,99202.22
2023-01-15T00:43:37.158Z,99209.16
2023-01-15T00:46:08.551Z,99211.00
2023-01-15T00:48:37.042Z,99207.38
2023-01-15T00:51:05.572Z,99206.03
2023-01-15T00:53:33.659Z,99193.66
2023-01-15T00:56:02.959Z,99204.03
2023-01-15T00:58:31.029Z,99205.88
2023-01-15T01:01:00.852Z,99209.75
2023-01-15T01:03:31.025Z,99206.84
2023-01-15T01:06:02.366Z,99198.09
2023-01-15T01:08:30.284Z,99203.13
2023-01-15T01:11:06.486Z,99204.09
2023-01-15T01:13:34.392Z,99207.41
2023-01-15T01:16:02.912Z,99210.19
2023-01-15T01:18:32.739Z,99211.03
2023-01-15T01:21:01.234Z,99207.25
2023-01-15T01:23:30.404Z,99218.28
2023-01-15T01:25:58.949Z,99199.34
2023-01-15T01:28:27.531Z,99221.44
2023-01-15T01:30:57.419Z,99225.22
2023-01-15T01:33:25.520Z,99226.19
2023-01-15T01:35:54.470Z,99229.50
2023-01-15T01:38:22.416Z,99233.94
2023-01-15T01:40:53.551Z,99238.41
2023-01-15T01:43:22.957Z,99235.75
2023-01-15T01:45:50.760Z,99234.34
2023-01-15T01:48:22.462Z,99251.28
2023-01-15T01:50:52.511Z,99250.47
2023-01-15T01:53:25.160Z,99247.81
2023-01-15T01:55:56.503Z,99246.31
2023-01-15T01:58:28.611Z,99249.78
2023-01-15T02:00:57.544Z,99246.47
2023-01-15T02:03:35.404Z,99254.91
2023-01-15T02:06:10.548Z,99249.94
2023-01-15T02:08:40.440Z,99232.16
2023-01-15T02:11:17.487Z,99240.22
2023-01-15T02:13:55.407Z,99241.19
2023-01-15T02:16:26.737Z,99236.75
2023-01-15T02:19:01.289Z,99243.69
2023-01-15T02:21:45.486Z,99242.69
2023-01-15T02:24:18.428Z,99239.91
2023-01-15T02:27:03.281Z,99230.47
2023-01-15T02:29:39.399Z,99230.19
2023-01-15T02:32:12.142Z,99242.41
2023-01-15T02:34:49.400Z,99239.06
2023-01-15T02:37:23.436Z,99239.75
2023-01-15T02:39:56.416Z,99233.53
2023-01-15T02:42:30.481Z,99229.91
2023-01-15T02:45:01.638Z,99230.59
2023-01-15T02:47:35.270Z,99221.00
2023-01-15T02:50:08.430Z,99215.19
2023-01-15T02:52:44.708Z,99221.69
2023-01-15T02:55:18.911Z,99226.56
2023-01-15T02:57:52.580Z,99222.53
2023-01-15T03:00:23.757Z,99224.06
2023-01-15T03:02:59.269Z,99219.34
2023-01-15T03:05:32.516Z,99226.28
2023-01-15T03:08:03.853Z,99217.41
2023-01-15T03:10:43.455Z,99203.38
2023-01-15T03:13:44.275Z,99202.94
2023-01-15T03:16:38.476Z,99205.84
2023-01-15T03:19:19.162Z,99213.25
2023-01-15T03:21:55.753Z,99207.66
2023-01-15T03:24:32.141Z,99208.94
2023-01-15T03:27:01.628Z,99203.38
2023-01-15T03:29:38.419Z,99197.81
2023-01-15T03:32:08.369Z,99181.44
2023-01-15T03:34:41.313Z,99172.25
2023-01-15T03:37:10.428Z,99177.53
2023-01-15T03:39:40.338Z,99171.97
2023-01-15T03:42:36.189Z,99168.78
2023-01-15T03:45:12.829Z,99177.66
2023-01-15T03:47:54.528Z,99174.06
2023-01-15T03:50:32.455Z,99172.69
2023-01-15T03:53:11.510Z,99175.88
2023-01-15T03:55:54.438Z,99181.84
2023-01-15T03:58:30.148Z,99174.63
2023-01-15T04:01:05.499Z,99175.72
2023-01-15T04:03:36.164Z,99163.63
2023-01-15T04:06:08.410Z,99189.47
2023-01-15T04:08:41.353Z,99176.56
2023-01-15T04:11:09.650Z,99178.78
2023-01-15T04:13:44.375Z,99170.19
2023-01-15T04:16:29.417Z,99176.28
2023-01-15T04:19:00.954Z,99186.00
2023-01-15T04:21:30.680Z,99173.63
2023-01-15T04:23:59.847Z,99178.50
2023-01-15T04:26:27.437Z,99179.91
2023-01-15T04:28:56.008Z,99174.91
2023-01-15T04:31:23.703Z,99172.94
2023-01-15T04:33:54.400Z,99182.25
2023-01-15T04:36:22.428Z,99186.00
2023-01-15T04:38:50.881Z,99177.38
2023-01-15T04:41:36.345Z,99174.91
2023-01-15T04:44:09.962Z,99189.34
2023-01-15T04:46:39.373Z,99193.09
2023-01-15T04:49:13.490Z,99187.81
2023-01-15T04:51:42.024Z,99177.38
2023-01-15T04:54:11.323Z,99196.56
2023-01-15T04:56:40.994Z,99189.19
2023-01-15T04:59:10.289Z,99192.66
2023-01-15T05:01:38.402Z,99195.03
2023-01-15T05:04:09.564Z,99182.94
2023-01-15T05:06:37.456Z,99188.22
2023-01-15T05:09:09.889Z,99187.38
2023-01-15T05:11:39.412Z,99179.19
2023-01-15T05:14:08.269Z,99181.28
2023-01-15T05:16:38.097Z,99176.56
2023-01-15T05:19:08.226Z,99174.91
2023-01-15T05:21:40.740Z,99178.78
2023-01-15T05:24:10.999Z,99183.78
2023-01-15T05:26:38.924Z,99182.94
2023-01-15T05:31:59.998Z,99177.13
2023-01-15T05:34:27.537Z,99181.44
2023-01-15T05:36:57.344Z,99174.19
2023-01-15T05:39:25.969Z,99183.25
2023-01-15T05:41:54.509Z,99180.28
2023-01-15T05:44:24.391Z,99183.78
2023-01-15T05:46:54.521Z,99190.56
2023-01-15T05:49:25.421Z,99188.53
2023-01-15T05:51:54.802Z,99197.81
2023-01-15T05:54:26.300Z,99190.84
2023-01-15T05:56:54.628Z,99204.03
2023-01-15T05:59:25.407Z,99202.78
2023-01-15T06:04:45.825Z,99200.72
2023-01-15T06:07:13.594Z,99189.75
2023-01-15T06:09:45.384Z,99190.72
2023-01-15T06:12:14.837Z,99196.00
2023-01-15T06:14:42.450Z,99196.81
2023-01-15T06:17:10.797Z,99201.84
2023-01-15T06:19:38.928Z,99195.03
2023-01-15T06:22:09.645Z,99193.66
2023-01-15T06:24:39.382Z,99201.41
2023-01-15T06:27:08.409Z,99195.72
2023-01-15T06:29:40.048Z,99197.41
2023-01-15T06:32:07.823Z,99190.19
2023-01-15T06:34:36.294Z,99191.41
2023-01-15T06:37:03.987Z,99183.78
2023-01-15T06:39:31.577Z,99190.13
2023-01-15T06:42:16.621Z,99192.66
2023-01-15T06:45:04.438Z,99191.09
2023-01-15T06:47:32.495Z,99194.06
2023-01-15T06:50:00.063Z,99198.94
2023-01-15T06:52:30.465Z,99205.03
2023-01-15T06:54:58.115Z,99203.91
2023-01-15T06:57:25.856Z,99207.25
2023-01-15T07:00:02.629Z,99215.41
2023-01-15T07:02:30.286Z,99215.84
2023-01-15T07:04:57.889Z,99213.06
2023-01-15T07:07:28.858Z,99218.22
2023-01-15T07:10:00.822Z,99208.59
2023-01-15T07:12:28.816Z,99220.28
2023-01-15T07:14:56.405Z,99211.78
2023-01-15T07:17:25.357Z,99211.97
2023-01-15T07:19:54.906Z,99207.38
2023-01-15T07:22:25.956Z,99210.13
2023-01-15T07:24:53.844Z,99199.59
2023-01-15T07:27:21.543Z,99194.53
2023-01-15T07:29:49.817Z,99190.00
2023-01-15T07:32:17.484Z,99191.81
2023-01-15T07:34:47.414Z,99181.25
2023-01-15T07:37:15.049Z,99190.53
2023-01-15T07:39:44.814Z,99189.94
2023-01-15T07:42:29.793Z,99185.56
2023-01-15T07:45:15.313Z,99193.00
2023-01-15T07:48:00.729Z,99206.22
2023-01-15T07:50:30.516Z,99209.00
2023-01-15T07:52:59.830Z,99200.09
2023-01-15T07:55:28.049Z,99210.97
2023-01-15T07:57:56.425Z,99207.50
2023-01-15T08:00:26.331Z,99218.72
2023-01-15T08:02:58.772Z,99209.44
2023-01-15T08:05:31.186Z,99207.25
2023-01-15T08:07:58.949Z,99209.00
2023-01-15T08:10:26.874Z,99222.50
2023-01-15T08:13:11.992Z,99228.19
2023-01-15T08:15:43.737Z,99225.16
2023-01-15T08:18:11.539Z,99220.56
2023-01-15T08:20:41.215Z,99229.59
2023-01-15T08:23:10.520Z,99234.75
2023-01-15T08:25:38.095Z,99245.47
2023-01-15T08:28:06.040Z,99233.06
2023-01-15T08:30:33.652Z,99245.03
2023-01-15T08:33:03.707Z,99233.19
2023-01-15T08:35:31.756Z,99241.84
2023-01-15T08:38:05.426Z,99246.28
2023-01-15T08:40:33.970Z,99252.53
2023-01-15T08:43:01.571Z,99250.59
2023-01-15T08:45:29.166Z,99248.63
2023-01-15T08:47:57.845Z,99244.50
2023-01-15T08:50:27.411Z,99253.81
2023-01-15T08:52:56.024Z,99247.81
2023-01-15T08:55:25.190Z,99244.19
2023-01-15T08:57:53.517Z,99251.28
2023-01-15T09:00:24.455Z,99258.81
2023-01-15T09:02:52.912Z,99244.91
2023-01-15T09:05:20.612Z,99252.41
2023-01-15T09:07:48.485Z,99259.34
2023-01-15T09:10:17.413Z,99259.47
2023-01-15T09:12:46.380Z,99258.78
2023-01-15T09:15:14.197Z,99251.56
2023-01-15T09:17:42.553Z,99259.47
2023-01-15T09:20:13.768Z,99253.38
2023-01-15T09:22:41.382Z,99235.56
2023-01-15T09:25:09.501Z,99255.19
2023-01-15T09:27:38.024Z,99249.91
2023-01-15T09:30:08.608Z,99273.66
2023-01-15T09:32:37.910Z,99263.78
2023-01-15T09:35:06.288Z,99266.28
2023-01-15T09:37:33.909Z,99250.16
2023-01-15T09:40:02.574Z,99250.56
2023-01-15T09:42:41.391Z,99256.38
2023-01-15T09:45:25.688Z,99260.63
2023-01-15T09:48:18.348Z,99254.59
2023-01-15T09:51:00.287Z,99264.97
2023-01-15T09:53:40.546Z,99261.94
2023-01-15T09:56:17.564Z,99258.47
2023-01-15T09:58:46.370Z,99248.50
2023-01-15T10:01:20.478Z,99256.38
2023-01-15T10:03:58.442Z,99248.66
2023-01-15T10:06:30.395Z,99255.84
2023-01-15T10:09:05.436Z,99259.41
2023-01-15T10:11:57.025Z,99256.78
2023-01-15T10:14:39.052Z,99261.13
2023-01-15T10:17:19.488Z,99255.09
2023-01-15T10:19:48.452Z,99276.38
2023-01-15T10:22:28.567Z,99270.66
2023-01-15T10:24:58.637Z,99277.22
2023-01-15T10:27:29.992Z,99273.59
2023-01-15T10:30:06.419Z,99281.50
2023-01-15T10:33:01.173Z,99260.84
2023-01-15T10:35:37.341Z,99256.06
2023-01-15T10:38:15.290Z,99269.53
2023-01-15T10:41:05.480Z,99264.78
2023-01-15T10:43:44.432Z,99262.97
2023-01-15T10:46:14.708Z,99273.38
2023-01-15T10:48:50.457Z,99263.56
2023-01-15T10:51:21.736Z,99271.72
2023-01-15T10:53:55.426Z,99267.66
2023-01-15T10:56:33.975Z,99267.97
2023-01-15T10:59:12.040Z,99276.81
2023-01-15T11:01:42.572Z,99266.84
2023-01-15T11:04:13.823Z,99280.22
2023-01-15T11:06:42.600Z,99286.81
2023-01-15T11:09:20.608Z,99265.72
2023-01-15T11:12:08.227Z,99282.06
2023-01-15T11:14:56.206Z,99267.03
2023-01-15T11:17:42.450Z,99252.25
2023-01-15T11:20:28.661Z,99259.50
2023-01-15T11:22:57.660Z,99256.84
2023-01-15T11:25:30.749Z,99249.16
2023-01-15T11:28:01.498Z,99260.84
2023-01-15T11:30:32.433Z,99277.75
2023-01-15T11:33:03.971Z,99270.31
2023-01-15T11:35:37.432Z,99270.00
2023-01-15T11:38:07.550Z,99279.13
2023-01-15T11:40:35.593Z,99274.06
2023-01-15T11:43:24.427Z,99256.94
2023-01-15T11:46:11.411Z,99257.91
2023-01-15T11:49:05.036Z,99255.44
2023-01-15T11:51:42.029Z,99255.44
2023-01-15T11:54:13.765Z,99255.66
2023-01-15T11:56:46.459Z,99270.53
2023-01-15T11:59:19.669Z,99243.78
2023-01-15T12:01:54.813Z,99241.00
2023-01-15T12:04:31.797Z,99239.91
2023-01-15T12:07:02.213Z,99233.97
2023-01-15T12:09:45.403Z,99239.03
2023-01-15T12:12:28.029Z,99246.34
2023-01-15T12:15:17.436Z,99243.88
2023-01-15T12:18:08.925Z,99252.47
2023-01-15T12:20:55.838Z,99249.16
2023-01-15T12:23:42.994Z,99237.16
2023-01-15T12:26:20.841Z,99219.31
2023-01-15T12:28:58.768Z,99240.19
2023-01-15T12:31:33.779Z,99226.34
2023-01-15T12:34:09.497Z,99234.19
2023-01-15T12:36:42.715Z,99226.09
2023-01-15T12:39:19.751Z,99224.59
2023-01-15T12:42:10.324Z,99219.16
2023-01-15T12:45:04.113Z,99220.44
2023-01-15T12:47:40.483Z,99226.78
2023-01-15T12:50:23.355Z,99219.16
2023-01-15T12:53:02.215Z,99228.28
2023-01-15T12:55:34.250Z,99228.28
2023-01-15T12:58:03.269Z,99213.84
2023-01-15T13:00:38.492Z,99206.47
2023-01-15T13:03:21.910Z,99208.66
2023-01-15T13:05:53.462Z,99213.47
2023-01-15T13:08:27.224Z,99199.19
2023-01-15T13:10:56.192Z,99205.78
2023-01-15T13:13:26.430Z,99217.66
2023-01-15T13:16:06.774Z,99213.13
2023-01-15T13:18:42.720Z,99212.34
2023-01-15T13:21:13.898Z,99210.38
2023-01-15T13:23:58.159Z,99210.81
2023-01-15T13:26:52.509Z,99216.22
2023-01-15T13:29:28.798Z,99218.69
2023-01-15T13:32:06.435Z,99214.66
2023-01-15T13:34:41.335Z,99205.38
2023-01-15T13:37:20.434Z,99225.34
2023-01-15T13:39:50.677Z,99232.97
2023-01-15T13:42:38.438Z,99251.09
2023-01-15T13:45:27.774Z,99229.88
2023-01-15T13:48:03.612Z,99242.41
2023-01-15T13:50:33.689Z,99233.72
2023-01-15T13:53:05.347Z,99237.72
2023-01-15T13:56:02.312Z,99247.25
2023-01-15T13:58:34.455Z,99230.41
2023-01-15T14:01:09.018Z,99253.53
2023-01-15T14:03:38.979Z,99239.78
2023-01-15T14:06:09.425Z,99229.81
2023-01-15T14:08:41.647Z,99237.28
2023-01-15T14:11:35.848Z,99242.72
2023-01-15T14:14:20.175Z,99241.59
2023-01-15T14:16:55.607Z,99246.06
2023-01-15T14:19:45.156Z,99242.72
2023-01-15T14:22:35.515Z,99266.16
2023-01-15T14:25:25.410Z,99240.41
2023-01-15T14:28:04.165Z,99253.63
2023-01-15T14:30:56.955Z,99260.56
2023-01-15T14:33:33.214Z,99289.06
2023-01-15T14:36:11.561Z,99270.44
2023-01-15T14:38:49.190Z,99272.75
2023-01-15T14:41:17.626Z,99285.03
2023-01-15T14:43:49.493Z,99279.53
2023-01-15T14:46:28.813Z,99274.78
2023-01-15T14:48:57.466Z,99284.06
2023-01-15T14:51:29.541Z,99293.81
2023-01-15T14:54:00.429Z,99288.38
2023-01-15T14:56:32.921Z,99296.00
2023-01-15T14:59:09.122Z,99298.25
2023-01-15T15:01:45.591Z,99294.56
2023-01-15T15:04:25.519Z,99299.09
2023-01-15T15:06:57.729Z,99311.69
2023-01-15T15:09:31.593Z,99293.72
2023-01-15T15:12:21.427Z,99290.03
2023-01-15T15:15:04.385Z,99300.28
2023-01-15T15:17:40.775Z,99296.66
2023-01-15T15:20:23.075Z,99305.41
2023-01-15T15:22:56.219Z,99297.16
2023-01-15T15:25:28.163Z,99316.06
2023-01-15T15:28:13.387Z,99297.56
2023-01-15T15:30:45.120Z,99299.91
2023-01-15T15:33:19.266Z,99303.75
2023-01-15T15:35:50.129Z,99312.28
2023-01-15T15:38:20.334Z,99314.50
2023-01-15T15:40:51.626Z,99321.53
2023-01-15T15:43:44.042Z,99306.28
2023-01-15T15:46:46.411Z,99305.06
2023-01-15T15:49:18.440Z,99311.31
2023-01-15T15:51:48.512Z,99301.44
2023-01-15T15:54:19.629Z,99307.41
2023-01-15T15:56:53.195Z,99309.00
2023-01-15T15:59:40.438Z,99322.88
2023-01-15T16:02:19.394Z,99326.34
2023-01-15T16:04:50.178Z,99320.34
2023-01-15T16:07:25.190Z,99333.41
2023-01-15T16:09:55.707Z,99326.50
2023-01-15T16:12:24.584Z,99324.84
2023-01-15T16:14:53.700Z,99326.34
2023-01-15T16:17:21.364Z,99327.75
2023-01-15T16:19:51.521Z,99326.34
2023-01-15T16:22:22.428Z,99330.91
2023-01-15T16:24:58.090Z,99330.16
2023-01-15T16:27:30.713Z,99329.81
2023-01-15T16:29:59.568Z,99335.56
2023-01-15T16:32:31.409Z,99332.56
2023-01-15T16:35:07.418Z,99345.19
2023-01-15T16:37:36.383Z,99333.50
2023-01-15T16:40:06.502Z,99340.06
2023-01-15T16:42:37.659Z,99346.34
2023-01-15T16:45:19.032Z,99344.78
2023-01-15T16:48:02.402Z,99344.28
2023-01-15T16:50:34.465Z,99349.25
2023-01-15T16:53:04.523Z,99352.28
2023-01-15T16:55:41.100Z,99362.44
2023-01-15T16:58:20.531Z,99361.63
2023-01-15T17:00:51.561Z,99365.22
2023-01-15T17:03:21.285Z,99379.56
2023-01-15T17:05:53.565Z,99353.44
2023-01-15T17:08:25.142Z,99373.19
2023-01-15T17:10:55.882Z,99374.84
2023-01-15T17:13:34.957Z,99361.50
2023-01-15T17:16:06.506Z,99362.63
2023-01-15T17:18:35.661Z,99368.06
2023-01-15T17:21:06.432Z,99377.22
2023-01-15T17:23:36.952Z,99374.19
2023-01-15T17:26:05.795Z,99365.41
2023-01-15T17:28:33.503Z,99370.81
2023-01-15T17:31:05.454Z,99374.59
2023-01-15T17:33:33.126Z,99364.03
2023-01-15T17:36:01.333Z,99380.44
2023-01-15T17:38:30.432Z,99375.44
2023-01-15T17:41:03.476Z,99375.44
2023-01-15T17:43:31.141Z,99364.72
2023-01-15T17:46:00.121Z,99376.97
2023-01-15T17:48:28.080Z,99386.44
2023-01-15T17:50:56.467Z,99383.28
2023-01-15T17:53:24.128Z,99382.84
2023-01-15T17:56:10.400Z,99383.13
2023-01-15T17:58:58.483Z,99394.94
2023-01-15T18:01:47.163Z,99393.97
2023-01-15T18:04:36.795Z,99377.59
2023-01-15T18:07:06.508Z,99404.56
2023-01-15T18:09:36.430Z,99392.03
2023-01-15T18:12:08.310Z,99395.09
2023-01-15T18:14:37.415Z,99389.72
2023-01-15T18:17:05.136Z,99398.22
2023-01-15T18:19:34.437Z,99395.31
2023-01-15T18:22:04.281Z,99393.19
2023-01-15T18:24:31.911Z,99389.31
2023-01-15T18:27:00.006Z,99395.56
2023-01-15T18:29:29.635Z,99399.16
2023-01-15T18:31:57.357Z,99403.59
2023-01-15T18:34:24.976Z,99391.94
2023-01-15T18:36:52.856Z,99396.41
2023-01-15T18:39:21.432Z,99401.94
2023-01-15T18:42:06.510Z,99404.59
2023-01-15T18:44:53.452Z,99402.78
2023-01-15T18:47:21.300Z,99407.66
2023-01-15T18:49:51.250Z,99409.63
2023-01-15T18:52:37.348Z,99421.00
2023-01-15T18:55:05.454Z,99412.56
2023-01-15T18:57:33.796Z,99411.84
2023-01-15T19:00:02.998Z,99411.84
2023-01-15T19:02:31.644Z,99420.34
2023-01-15T19:05:00.582Z,99420.34
2023-01-15T19:07:28.222Z,99419.34
2023-01-15T19:09:56.129Z,99423.94
2023-01-15T19:12:23.881Z,99419.09
2023-01-15T19:15:08.924Z,99412.25
2023-01-15T19:17:55.371Z,99427.44
2023-01-15T19:20:23.074Z,99433.13
2023-01-15T19:22:59.468Z,99435.19
2023-01-15T19:25:29.836Z,99419.66
2023-01-15T19:28:00.419Z,99428.81
2023-01-15T19:30:29.409Z,99429.81
2023-01-15T19:32:58.376Z,99432.56
2023-01-15T19:35:26.190Z,99421.72
2023-01-15T19:37:55.038Z,99416.59
2023-01-15T19:40:23.149Z,99424.38
2023-01-15T19:43:09.248Z,99422.56
2023-01-15T19:45:57.827Z,99422.72
2023-01-15T19:48:44.447Z,99428.56
2023-01-15T19:51:13.569Z,99436.91
2023-01-15T19:53:41.617Z,99427.16
2023-01-15T19:56:09.556Z,99424.66
2023-01-15T19:58:37.809Z,99416.16
2023-01-15T20:01:05.905Z,99412.41
2023-01-15T20:03:36.390Z,99411.44
2023-01-15T20:06:08.532Z,99412.25
2023-01-15T20:08:39.890Z,99404.63
2023-01-15T20:11:10.400Z,99403.75
2023-01-15T20:13:53.434Z,99403.78
2023-01-15T20:16:25.201Z,99408.22
2023-01-15T20:18:55.580Z,99401.00
2023-01-15T20:21:23.448Z,99395.16
2023-01-15T20:23:53.013Z,99391.94
2023-01-15T20:26:24.442Z,99392.50
2023-01-15T20:28:52.059Z,99396.25
2023-01-15T20:31:20.247Z,99386.00
2023-01-15T20:33:48.299Z,99382.94
2023-01-15T20:36:17.512Z,99382.09
2023-01-15T20:38:45.177Z,99377.91
2023-01-15T20:41:35.501Z,99376.41
2023-01-15T20:44:22.407Z,99377.34
2023-01-15T20:46:50.063Z,99375.16
2023-01-15T20:49:27.278Z,99363.31
2023-01-15T20:51:57.315Z,99369.06
2023-01-15T20:54:26.202Z,99367.34
2023-01-15T20:56:54.065Z,99365.97
2023-01-15T20:59:22.068Z,99365.28
2023-01-15T21:01:49.860Z,99361.38
2023-01-15T21:04:18.322Z,99360.69
2023-01-15T21:06:46.541Z,99360.31
2023-01-15T21:09:15.960Z,99358.03
2023-01-15T21:11:43.629Z,99352.50
2023-01-15T21:14:15.461Z,99350.41
2023-01-15T21:16:45.170Z,99348.59
2023-01-15T21:19:12.891Z,99349.03
2023-01-15T21:21:41.005Z,99346.53
2023-01-15T21:24:09.529Z,99343.63
2023-01-15T21:26:39.137Z,99328.78
2023-01-15T21:29:06.948Z,99332.09
2023-01-15T21:31:36.870Z,99330.97
2023-01-15T21:34:05.072Z,99329.19
2023-01-15T21:36:32.894Z,99321.81
2023-01-15T21:39:00.687Z,99319.03
2023-01-15T21:41:42.925Z,99308.06
2023-01-15T21:44:33.948Z,99307.41
2023-01-15T21:47:03.666Z,99307.25
2023-01-15T21:49:33.283Z,99305.28
2023-01-15T21:52:03.430Z,99300.31
2023-01-15T21:54:32.521Z,99287.63
2023-01-15T21:57:00.179Z,99288.91
2023-01-15T21:59:29.178Z,99281.66
2023-01-15T22:01:57.508Z,99281.25
2023-01-15T22:04:26.879Z,99280.00
2023-01-15T22:06:55.342Z,99277.50
2023-01-15T22:09:23.621Z,99280.44
2023-01-15T22:11:52.476Z,99271.53
2023-01-15T22:14:23.667Z,99263.63
2023-01-15T22:16:55.584Z,99264.03
2023-01-15T22:19:24.891Z,99260.16
2023-01-15T22:21:53.508Z,99261.97
2023-01-15T22:24:21.926Z,99253.88
2023-01-15T22:26:54.325Z,99249.75
2023-01-15T22:29:22.656Z,99246.13
2023-01-15T22:31:50.983Z,99245.56
2023-01-15T22:34:24.096Z,99246.13
2023-01-15T22:36:52.615Z,99241.00
2023-01-15T22:39:21.302Z,99237.94
2023-01-15T22:42:06.512Z,99228.38
2023-01-15T22:44:35.805Z,99230.19
2023-01-15T22:47:04.798Z,99222.94
2023-01-15T22:49:34.276Z,99224.69
2023-01-15T22:52:02.457Z,99226.25
2023-01-15T22:54:30.091Z,99225.16
2023-01-15T22:56:57.730Z,99223.50
2023-01-15T22:59:25.353Z,99215.25
2023-01-15T23:01:53.293Z,99215.13
2023-01-15T23:04:23.918Z,99211.50
2023-01-15T23:06:54.158Z,99210.81
2023-01-15T23:09:24.128Z,99200.00
2023-01-15T23:11:52.226Z,99202.81
2023-01-15T23:14:21.702Z,99199.53
2023-01-15T23:16:50.434Z,99196.13
2023-01-15T23:19:18.470Z,99193.09
2023-01-15T23:21:47.445Z,99196.28
2023-01-15T23:24:17.831Z,99196.69
2023-01-15T23:26:45.449Z,99194.91
2023-01-15T23:29:13.174Z,99192.97
2023-01-15T23:31:40.738Z,99199.09
2023-01-15T23:34:09.980Z,99200.06
2023-01-15T23:36:37.609Z,99192.56
2023-01-15T23:39:05.395Z,99194.44
2023-01-15T23:41:54.278Z,99193.44
2023-01-15T23:44:40.149Z,99172.63
2023-01-15T23:47:08.967Z,99176.69
2023-01-15T23:49:36.742Z,99166.84
2023-01-15T23:52:05.544Z,99162.00
2023-01-15T23:54:33.544Z,99158.25
2023-01-15T23:57:03.126Z,99142.28
2023-01-15T23:59:31.199Z,99143.56
